Terminal Aerodrome Forecast
Issued by NWS Northern Indiana

Home | Current Version | Previous Version | Graphics & Text | Print | Product List | Glossary On
Versions: 1 2 3 4 5 6 7 8 9 10 11 12 13 14
659
FTUS43 KIWX 032339
TAFFWA
TAF
KFWA 032339Z 0400/0424 33003KT P6SM OVC025
     FM041400 12006KT P6SM SCT020 OVC050
     FM041700 13008KT 6SM -RASN BR OVC025
     FM041900 13008KT 4SM -RA BR OVC020
     FM042100 14006KT 1 1/2SM -RASN BR OVC010=

USA.gov is the U.S. government's official web portal to all federal, state and local government web resources and services.